sensor_id;sensor_type;location;lat;lon;timestamp;pressure;altitude;pressure_sealevel;temperature;humidity
69535;BME280;56754;51.568;5.048;2023-04-26T00:01:50;101899.19;;;10.59;59.87
69535;BME280;56754;51.568;5.048;2023-04-26T00:04:15;101902.44;;;10.56;59.30
69535;BME280;56754;51.568;5.048;2023-04-26T00:06:41;101898.44;;;10.54;60.14
69535;BME280;56754;51.568;5.048;2023-04-26T00:09:06;101905.16;;;10.51;59.68
69535;BME280;56754;51.568;5.048;2023-04-26T00:11:31;101901.69;;;10.51;59.25
69535;BME280;56754;51.568;5.048;2023-04-26T00:13:57;101900.38;;;10.48;59.90
69535;BME280;56754;51.568;5.048;2023-04-26T00:16:23;101903.31;;;10.46;59.75
69535;BME280;56754;51.568;5.048;2023-04-26T00:18:48;101905.50;;;10.44;59.75
69535;BME280;56754;51.568;5.048;2023-04-26T00:21:13;101908.44;;;10.43;60.25
69535;BME280;56754;51.568;5.048;2023-04-26T00:23:42;101908.19;;;10.39;59.40
69535;BME280;56754;51.568;5.048;2023-04-26T00:26:07;101910.88;;;10.39;60.45
69535;BME280;56754;51.568;5.048;2023-04-26T00:28:32;101904.22;;;10.37;60.62
69535;BME280;56754;51.568;5.048;2023-04-26T00:30:57;101904.78;;;10.34;59.42
69535;BME280;56754;51.568;5.048;2023-04-26T00:33:23;101901.56;;;10.32;59.49
69535;BME280;56754;51.568;5.048;2023-04-26T00:35:48;101902.66;;;10.31;60.13
69535;BME280;56754;51.568;5.048;2023-04-26T00:38:14;101908.56;;;10.28;59.81
69535;BME280;56754;51.568;5.048;2023-04-26T00:40:39;101911.47;;;10.26;60.42
69535;BME280;56754;51.568;5.048;2023-04-26T00:43:05;101906.97;;;10.27;60.39
69535;BME280;56754;51.568;5.048;2023-04-26T00:45:30;101913.66;;;10.24;59.77
69535;BME280;56754;51.568;5.048;2023-04-26T00:47:57;101915.00;;;10.21;60.69
69535;BME280;56754;51.568;5.048;2023-04-26T00:50:22;101905.41;;;10.20;60.35
69535;BME280;56754;51.568;5.048;2023-04-26T00:52:48;101906.47;;;10.19;61.02
69535;BME280;56754;51.568;5.048;2023-04-26T00:55:14;101901.41;;;10.18;60.95
69535;BME280;56754;51.568;5.048;2023-04-26T00:57:40;101905.13;;;10.17;60.63
69535;BME280;56754;51.568;5.048;2023-04-26T01:00:06;101897.41;;;10.15;60.75
69535;BME280;56754;51.568;5.048;2023-04-26T01:02:31;101899.56;;;10.13;60.58
69535;BME280;56754;51.568;5.048;2023-04-26T01:04:57;101901.72;;;10.11;60.85
69535;BME280;56754;51.568;5.048;2023-04-26T01:07:22;101896.38;;;10.11;60.32
69535;BME280;56754;51.568;5.048;2023-04-26T01:09:48;101903.09;;;10.09;60.61
69535;BME280;56754;51.568;5.048;2023-04-26T01:12:13;101906.03;;;10.07;60.19
69535;BME280;56754;51.568;5.048;2023-04-26T01:14:39;101904.72;;;10.05;60.56
69535;BME280;56754;51.568;5.048;2023-04-26T01:17:04;101907.94;;;10.01;61.22
69535;BME280;56754;51.568;5.048;2023-04-26T01:19:29;101906.34;;;10.00;61.17
69535;BME280;56754;51.568;5.048;2023-04-26T01:21:55;101903.16;;;9.98;60.94
69535;BME280;56754;51.568;5.048;2023-04-26T01:24:20;101905.28;;;9.96;60.53
69535;BME280;56754;51.568;5.048;2023-04-26T01:26:45;101913.59;;;9.95;60.17
69535;BME280;56754;51.568;5.048;2023-04-26T01:29:19;101922.69;;;9.94;61.36
69535;BME280;56754;51.568;5.048;2023-04-26T01:31:45;101921.09;;;9.93;60.51
69535;BME280;56754;51.568;5.048;2023-04-26T01:34:11;101916.81;;;9.92;60.95
69535;BME280;56754;51.568;5.048;2023-04-26T01:36:36;101917.38;;;9.89;60.19
69535;BME280;56754;51.568;5.048;2023-04-26T01:39:02;101913.91;;;9.88;61.77
69535;BME280;56754;51.568;5.048;2023-04-26T01:41:27;101913.09;;;9.88;60.74
69535;BME280;56754;51.568;5.048;2023-04-26T01:43:53;101910.97;;;9.85;61.07
69535;BME280;56754;51.568;5.048;2023-04-26T01:46:18;101914.75;;;9.84;61.79
69535;BME280;56754;51.568;5.048;2023-04-26T01:48:43;101900.59;;;9.83;61.89
69535;BME280;56754;51.568;5.048;2023-04-26T01:51:09;101905.13;;;9.83;61.50
69535;BME280;56754;51.568;5.048;2023-04-26T01:53:34;101914.22;;;9.82;60.97
69535;BME280;56754;51.568;5.048;2023-04-26T01:56:00;101903.81;;;9.80;60.93
69535;BME280;56754;51.568;5.048;2023-04-26T01:58:25;101906.25;;;9.76;61.19
69535;BME280;56754;51.568;5.048;2023-04-26T02:00:51;101907.03;;;9.77;60.91
69535;BME280;56754;51.568;5.048;2023-04-26T02:03:16;101905.44;;;9.76;61.37
69535;BME280;56754;51.568;5.048;2023-04-26T02:05:41;101913.72;;;9.74;61.86
69535;BME280;56754;51.568;5.048;2023-04-26T02:08:06;101907.59;;;9.74;61.89
69535;BME280;56754;51.568;5.048;2023-04-26T02:10:32;101907.06;;;9.72;60.94
69535;BME280;56754;51.568;5.048;2023-04-26T02:12:57;101914.84;;;9.68;61.24
69535;BME280;56754;51.568;5.048;2023-04-26T02:15:22;101903.38;;;9.68;61.83
69535;BME280;56754;51.568;5.048;2023-04-26T02:17:47;101908.97;;;9.66;61.71
69535;BME280;56754;51.568;5.048;2023-04-26T02:20:13;101905.75;;;9.64;61.49
69535;BME280;56754;51.568;5.048;2023-04-26T02:22:38;101908.44;;;9.64;61.73
69535;BME280;56754;51.568;5.048;2023-04-26T02:25:04;101906.84;;;9.63;62.08
69535;BME280;56754;51.568;5.048;2023-04-26T02:27:29;101902.59;;;9.62;62.65
69535;BME280;56754;51.568;5.048;2023-04-26T02:29:54;101903.66;;;9.61;62.39
69535;BME280;56754;51.568;5.048;2023-04-26T02:32:20;101898.59;;;9.60;61.74
69535;BME280;56754;51.568;5.048;2023-04-26T02:34:45;101903.16;;;9.59;61.66
69535;BME280;56754;51.568;5.048;2023-04-26T02:37:10;101906.38;;;9.56;61.37
69535;BME280;56754;51.568;5.048;2023-04-26T02:39:36;101902.09;;;9.55;61.61
69535;BME280;56754;51.568;5.048;2023-04-26T02:42:01;101899.41;;;9.55;62.22
69535;BME280;56754;51.568;5.048;2023-04-26T02:44:29;101892.50;;;9.54;61.88
69535;BME280;56754;51.568;5.048;2023-04-26T02:46:55;101896.25;;;9.53;62.74
69535;BME280;56754;51.568;5.048;2023-04-26T02:49:20;101897.28;;;9.52;62.67
69535;BME280;56754;51.568;5.048;2023-04-26T02:51:45;101888.50;;;9.51;62.79
69535;BME280;56754;51.568;5.048;2023-04-26T02:54:10;101886.13;;;9.50;62.50
69535;BME280;56754;51.568;5.048;2023-04-26T02:56:36;101892.81;;;9.47;62.46
69535;BME280;56754;51.568;5.048;2023-04-26T02:59:01;101889.59;;;9.45;62.44
69535;BME280;56754;51.568;5.048;2023-04-26T03:01:26;101886.13;;;9.45;62.57
69535;BME280;56754;51.568;5.048;2023-04-26T03:03:53;101891.47;;;9.45;63.00
69535;BME280;56754;51.568;5.048;2023-04-26T03:06:18;101888.28;;;9.43;63.00
69535;BME280;56754;51.568;5.048;2023-04-26T03:08:44;101888.56;;;9.41;62.74
69535;BME280;56754;51.568;5.048;2023-04-26T03:11:09;101881.63;;;9.40;62.99
69535;BME280;56754;51.568;5.048;2023-04-26T03:13:34;101890.69;;;9.39;62.29
69535;BME280;56754;51.568;5.048;2023-04-26T03:16:00;101880.81;;;9.40;63.42
69535;BME280;56754;51.568;5.048;2023-04-26T03:18:25;101875.25;;;9.36;63.11
69535;BME280;56754;51.568;5.048;2023-04-26T03:20:50;101881.38;;;9.37;63.00
69535;BME280;56754;51.568;5.048;2023-04-26T03:23:16;101884.34;;;9.35;63.44
69535;BME280;56754;51.568;5.048;2023-04-26T03:25:41;101879.25;;;9.33;62.64
69535;BME280;56754;51.568;5.048;2023-04-26T03:28:06;101892.59;;;9.33;62.83
69535;BME280;56754;51.568;5.048;2023-04-26T03:30:32;101883.25;;;9.31;63.26
69535;BME280;56754;51.568;5.048;2023-04-26T03:32:57;101883.25;;;9.31;63.07
69535;BME280;56754;51.568;5.048;2023-04-26T03:35:22;101877.44;;;9.29;62.75
69535;BME280;56754;51.568;5.048;2023-04-26T03:37:48;101876.06;;;9.31;63.05
69535;BME280;56754;51.568;5.048;2023-04-26T03:40:13;101877.13;;;9.30;63.43
69535;BME280;56754;51.568;5.048;2023-04-26T03:42:38;101877.44;;;9.29;63.22
69535;BME280;56754;51.568;5.048;2023-04-26T03:45:04;101875.81;;;9.28;63.66
69535;BME280;56754;51.568;5.048;2023-04-26T03:47:30;101883.56;;;9.24;63.84
69535;BME280;56754;51.568;5.048;2023-04-26T03:49:56;101884.66;;;9.23;63.65
69535;BME280;56754;51.568;5.048;2023-04-26T03:52:21;101881.16;;;9.23;63.09
69535;BME280;56754;51.568;5.048;2023-04-26T03:54:46;101881.72;;;9.20;63.60
69535;BME280;56754;51.568;5.048;2023-04-26T03:57:12;101877.19;;;9.20;63.07
69535;BME280;56754;51.568;5.048;2023-04-26T03:59:37;101871.88;;;9.20;63.39
69535;BME280;56754;51.568;5.048;2023-04-26T04:02:02;101874.78;;;9.19;63.41
69535;BME280;56754;51.568;5.048;2023-04-26T04:04:28;101868.91;;;9.17;63.84
69535;BME280;56754;51.568;5.048;2023-04-26T04:06:53;101871.88;;;9.15;63.35
69535;BME280;56754;51.568;5.048;2023-04-26T04:09:18;101879.88;;;9.15;63.75
69535;BME280;56754;51.568;5.048;2023-04-26T04:11:44;101872.13;;;9.14;63.10
69535;BME280;56754;51.568;5.048;2023-04-26T04:14:09;101869.47;;;9.14;63.73
69535;BME280;56754;51.568;5.048;2023-04-26T04:16:34;101869.75;;;9.12;63.73
69535;BME280;56754;51.568;5.048;2023-04-26T04:19:00;101879.63;;;9.11;63.60
69535;BME280;56754;51.568;5.048;2023-04-26T04:21:25;101876.44;;;9.09;64.03
69535;BME280;56754;51.568;5.048;2023-04-26T04:23:50;101881.75;;;9.09;63.51
69535;BME280;56754;51.568;5.048;2023-04-26T04:26:15;101878.31;;;9.09;63.42
69535;BME280;56754;51.568;5.048;2023-04-26T04:28:41;101880.97;;;9.09;63.88
69535;BME280;56754;51.568;5.048;2023-04-26T04:31:06;101884.44;;;9.09;63.76
69535;BME280;56754;51.568;5.048;2023-04-26T04:33:32;101888.97;;;9.09;63.95
69535;BME280;56754;51.568;5.048;2023-04-26T04:35:57;101888.19;;;9.08;63.20
69535;BME280;56754;51.568;5.048;2023-04-26T04:38:22;101894.56;;;9.07;63.48
69535;BME280;56754;51.568;5.048;2023-04-26T04:40:48;101892.97;;;9.06;63.42
69535;BME280;56754;51.568;5.048;2023-04-26T04:43:13;101894.56;;;9.07;63.56
69535;BME280;56754;51.568;5.048;2023-04-26T04:45:38;101892.69;;;9.08;63.87
69535;BME280;56754;51.568;5.048;2023-04-26T04:48:03;101892.44;;;9.09;63.80
69535;BME280;56754;51.568;5.048;2023-04-26T04:50:29;101895.09;;;9.09;64.04
69535;BME280;56754;51.568;5.048;2023-04-26T04:52:55;101895.09;;;9.09;63.90
69535;BME280;56754;51.568;5.048;2023-04-26T04:55:20;101894.31;;;9.09;63.49
69535;BME280;56754;51.568;5.048;2023-04-26T04:57:45;101894.84;;;9.11;63.51
69535;BME280;56754;51.568;5.048;2023-04-26T05:00:11;101893.75;;;9.12;63.36
69535;BME280;56754;51.568;5.048;2023-04-26T05:02:36;101890.00;;;9.13;63.32
69535;BME280;56754;51.568;5.048;2023-04-26T05:05:03;101888.97;;;9.14;63.51
69535;BME280;56754;51.568;5.048;2023-04-26T05:07:28;101884.41;;;9.15;63.72
69535;BME280;56754;51.568;5.048;2023-04-26T05:09:53;101887.59;;;9.17;63.22
69535;BME280;56754;51.568;5.048;2023-04-26T05:12:18;101890.00;;;9.18;63.28
69535;BME280;56754;51.568;5.048;2023-04-26T05:14:44;101893.47;;;9.19;62.86
69535;BME280;56754;51.568;5.048;2023-04-26T05:17:09;101895.59;;;9.22;62.84
69535;BME280;56754;51.568;5.048;2023-04-26T05:19:34;101897.16;;;9.23;62.45
69535;BME280;56754;51.568;5.048;2023-04-26T05:22:00;101898.50;;;9.25;62.60
69535;BME280;56754;51.568;5.048;2023-04-26T05:24:28;101896.91;;;9.29;62.89
69535;BME280;56754;51.568;5.048;2023-04-26T05:26:54;101898.22;;;9.32;62.95
69535;BME280;56754;51.568;5.048;2023-04-26T05:29:19;101893.38;;;9.34;62.44
69535;BME280;56754;51.568;5.048;2023-04-26T05:31:44;101900.84;;;9.37;62.68
69535;BME280;56754;51.568;5.048;2023-04-26T05:34:09;101897.63;;;9.40;61.94
69535;BME280;56754;51.568;5.048;2023-04-26T05:36:35;101891.75;;;9.43;62.47
69535;BME280;56754;51.568;5.048;2023-04-26T05:39:00;101892.81;;;9.47;62.08
69535;BME280;56754;51.568;5.048;2023-04-26T05:41:25;101893.03;;;9.51;62.22
69535;BME280;56754;51.568;5.048;2023-04-26T05:43:50;101897.03;;;9.53;62.67
69535;BME280;56754;51.568;5.048;2023-04-26T05:46:17;101891.38;;;9.60;61.87
69535;BME280;56754;51.568;5.048;2023-04-26T05:48:42;101902.03;;;9.65;61.65
69535;BME280;56754;51.568;5.048;2023-04-26T05:51:07;101903.06;;;9.69;61.70
69535;BME280;56754;51.568;5.048;2023-04-26T05:53:33;101906.81;;;9.73;61.39
69535;BME280;56754;51.568;5.048;2023-04-26T05:55:58;101905.97;;;9.78;61.42
69535;BME280;56754;51.568;5.048;2023-04-26T05:58:23;101910.75;;;9.81;61.58
69535;BME280;56754;51.568;5.048;2023-04-26T06:00:49;101909.13;;;9.85;61.36
69535;BME280;56754;51.568;5.048;2023-04-26T06:03:14;101910.16;;;9.89;61.43
69535;BME280;56754;51.568;5.048;2023-04-26T06:05:39;101909.34;;;9.94;61.14
69535;BME280;56754;51.568;5.048;2023-04-26T06:08:04;101916.81;;;9.97;61.29
69535;BME280;56754;51.568;5.048;2023-04-26T06:10:30;101908.47;;;10.03;61.65
69535;BME280;56754;51.568;5.048;2023-04-26T06:12:55;101917.50;;;10.08;61.44
69535;BME280;56754;51.568;5.048;2023-04-26T06:15:20;101920.94;;;10.13;61.13
69535;BME280;56754;51.568;5.048;2023-04-26T06:17:46;101924.63;;;10.17;61.46
69535;BME280;56754;51.568;5.048;2023-04-26T06:20:11;101923.53;;;10.23;61.35
69535;BME280;56754;51.568;5.048;2023-04-26T06:22:37;101934.19;;;10.29;61.47
69535;BME280;56754;51.568;5.048;2023-04-26T06:25:03;101936.84;;;10.34;61.32
69535;BME280;56754;51.568;5.048;2023-04-26T06:27:28;101930.94;;;10.37;61.43
69535;BME280;56754;51.568;5.048;2023-04-26T06:29:54;101939.72;;;10.42;60.93
69535;BME280;56754;51.568;5.048;2023-04-26T06:32:19;101933.81;;;10.45;60.88
69535;BME280;56754;51.568;5.048;2023-04-26T06:34:44;101934.31;;;10.47;60.93
69535;BME280;56754;51.568;5.048;2023-04-26T06:37:10;101938.81;;;10.52;60.46
69535;BME280;56754;51.568;5.048;2023-04-26T06:39:35;101935.56;;;10.55;60.24
69535;BME280;56754;51.568;5.048;2023-04-26T06:42:01;101936.09;;;10.57;60.11
69535;BME280;56754;51.568;5.048;2023-04-26T06:44:26;101942.78;;;10.60;59.88
69535;BME280;56754;51.568;5.048;2023-04-26T06:46:54;101941.91;;;10.64;60.47
69535;BME280;56754;51.568;5.048;2023-04-26T06:49:19;101942.34;;;10.77;59.82
69535;BME280;56754;51.568;5.048;2023-04-26T06:51:45;101934.22;;;10.87;59.63
69535;BME280;56754;51.568;5.048;2023-04-26T06:54:11;101938.66;;;10.97;59.43
69535;BME280;56754;51.568;5.048;2023-04-26T06:56:36;101929.47;;;11.03;58.81
69535;BME280;56754;51.568;5.048;2023-04-26T06:59:04;101932.91;;;11.08;59.00
69535;BME280;56754;51.568;5.048;2023-04-26T07:01:30;101928.59;;;11.12;58.59
69535;BME280;56754;51.568;5.048;2023-04-26T07:03:55;101929.88;;;11.15;58.53
69535;BME280;56754;51.568;5.048;2023-04-26T07:06:21;101946.19;;;11.19;58.39
69535;BME280;56754;51.568;5.048;2023-04-26T07:08:46;101943.19;;;11.20;58.37
69535;BME280;56754;51.568;5.048;2023-04-26T07:11:12;101933.81;;;11.23;58.46
69535;BME280;56754;51.568;5.048;2023-04-26T07:13:37;101941.25;;;11.26;58.17
69535;BME280;56754;51.568;5.048;2023-04-26T07:16:02;101943.66;;;11.27;58.20
69535;BME280;56754;51.568;5.048;2023-04-26T07:18:28;101943.09;;;11.30;58.30
69535;BME280;56754;51.568;5.048;2023-04-26T07:20:53;101940.91;;;11.32;58.09
69535;BME280;56754;51.568;5.048;2023-04-26T07:23:18;101939.53;;;11.35;57.95
69535;BME280;56754;51.568;5.048;2023-04-26T07:25:44;101930.44;;;11.36;57.95
69535;BME280;56754;51.568;5.048;2023-04-26T07:28:09;101933.59;;;11.38;58.10
69535;BME280;56754;51.568;5.048;2023-04-26T07:30:34;101932.53;;;11.39;58.03
69535;BME280;56754;51.568;5.048;2023-04-26T07:32:59;101931.66;;;11.44;58.22
69535;BME280;56754;51.568;5.048;2023-04-26T07:35:25;101929.72;;;11.49;58.05
69535;BME280;56754;51.568;5.048;2023-04-26T07:37:50;101930.72;;;11.53;58.22
69535;BME280;56754;51.568;5.048;2023-04-26T07:40:15;101933.34;;;11.58;58.29
69535;BME280;56754;51.568;5.048;2023-04-26T07:42:41;101926.34;;;11.63;58.03
69535;BME280;56754;51.568;5.048;2023-04-26T07:45:06;101928.72;;;11.64;57.69
69535;BME280;56754;51.568;5.048;2023-04-26T07:47:32;101937.75;;;11.68;57.71
69535;BME280;56754;51.568;5.048;2023-04-26T07:49:57;101942.56;;;11.71;58.15
69535;BME280;56754;51.568;5.048;2023-04-26T07:52:22;101947.09;;;11.71;57.61
69535;BME280;56754;51.568;5.048;2023-04-26T07:54:48;101948.72;;;11.72;57.84
69535;BME280;56754;51.568;5.048;2023-04-26T07:57:13;101942.25;;;11.73;57.55
69535;BME280;56754;51.568;5.048;2023-04-26T07:59:38;101944.16;;;11.72;57.29
69535;BME280;56754;51.568;5.048;2023-04-26T08:02:03;101942.25;;;11.73;57.34
69535;BME280;56754;51.568;5.048;2023-04-26T08:04:31;101942.00;;;11.74;57.21
69535;BME280;56754;51.568;5.048;2023-04-26T08:06:56;101952.69;;;11.74;57.03
69535;BME280;56754;51.568;5.048;2023-04-26T08:09:21;101946.53;;;11.74;57.02
69535;BME280;56754;51.568;5.048;2023-04-26T08:11:47;101950.03;;;11.74;56.82
69535;BME280;56754;51.568;5.048;2023-04-26T08:14:12;101950.81;;;11.75;56.80
69535;BME280;56754;51.568;5.048;2023-04-26T08:16:37;101951.31;;;11.77;57.00
69535;BME280;56754;51.568;5.048;2023-04-26T08:19:03;101948.34;;;11.78;57.13
69535;BME280;56754;51.568;5.048;2023-04-26T08:21:28;101949.13;;;11.79;56.79
69535;BME280;56754;51.568;5.048;2023-04-26T08:23:53;101952.91;;;11.78;56.35
69535;BME280;56754;51.568;5.048;2023-04-26T08:26:18;101949.94;;;11.79;56.33
69535;BME280;56754;51.568;5.048;2023-04-26T08:28:44;101948.88;;;11.80;56.52
69535;BME280;56754;51.568;5.048;2023-04-26T08:31:09;101945.38;;;11.80;56.15
69535;BME280;56754;51.568;5.048;2023-04-26T08:33:34;101940.84;;;11.80;56.68
69535;BME280;56754;51.568;5.048;2023-04-26T08:35:59;101943.19;;;11.82;56.70
69535;BME280;56754;51.568;5.048;2023-04-26T08:38:25;101946.41;;;11.84;56.58
69535;BME280;56754;51.568;5.048;2023-04-26T08:40:50;101946.41;;;11.84;56.45
69535;BME280;56754;51.568;5.048;2023-04-26T08:43:16;101949.88;;;11.84;56.46
69535;BME280;56754;51.568;5.048;2023-04-26T08:45:43;101950.41;;;11.87;56.37
69535;BME280;56754;51.568;5.048;2023-04-26T08:48:10;101945.06;;;11.87;56.09
69535;BME280;56754;51.568;5.048;2023-04-26T08:50:37;101937.50;;;11.89;56.33
69535;BME280;56754;51.568;5.048;2023-04-26T08:53:04;101934.56;;;11.90;56.25
69535;BME280;56754;51.568;5.048;2023-04-26T08:55:30;101936.13;;;11.91;56.11
69535;BME280;56754;51.568;5.048;2023-04-26T08:57:56;101941.22;;;11.93;56.12
69535;BME280;56754;51.568;5.048;2023-04-26T09:00:22;101936.66;;;11.93;56.02
69535;BME280;56754;51.568;5.048;2023-04-26T09:02:49;101939.84;;;11.95;56.15
69535;BME280;56754;51.568;5.048;2023-04-26T09:05:15;101929.13;;;11.95;56.19
69535;BME280;56754;51.568;5.048;2023-04-26T09:07:44;101933.38;;;11.96;56.07
69535;BME280;56754;51.568;5.048;2023-04-26T09:10:11;101923.47;;;11.97;55.70
69535;BME280;56754;51.568;5.048;2023-04-26T09:12:37;101930.69;;;11.96;55.44
69535;BME280;56754;51.568;5.048;2023-04-26T09:15:04;101933.38;;;11.96;55.63
69535;BME280;56754;51.568;5.048;2023-04-26T09:17:34;101932.59;;;11.96;55.60
69535;BME280;56754;51.568;5.048;2023-04-26T09:20:00;101931.81;;;11.95;55.75
69535;BME280;56754;51.568;5.048;2023-04-26T09:22:36;101936.06;;;11.96;55.55
69535;BME280;56754;51.568;5.048;2023-04-26T09:25:03;101937.94;;;11.96;55.49
69535;BME280;56754;51.568;5.048;2023-04-26T09:30:05;101940.31;;;11.97;55.90
69535;BME280;56754;51.568;5.048;2023-04-26T09:35:24;101938.44;;;11.98;55.58
69535;BME280;56754;51.568;5.048;2023-04-26T09:37:58;101938.44;;;11.98;55.18
69535;BME280;56754;51.568;5.048;2023-04-26T09:40:25;101940.31;;;11.97;55.40
69535;BME280;56754;51.568;5.048;2023-04-26T09:42:57;101940.31;;;11.97;55.80
69535;BME280;56754;51.568;5.048;2023-04-26T09:45:22;101944.31;;;12.00;55.66
69535;BME280;56754;51.568;5.048;2023-04-26T09:47:47;101938.16;;;11.99;55.33
69535;BME280;56754;51.568;5.048;2023-04-26T09:50:13;101945.91;;;12.01;55.37
69535;BME280;56754;51.568;5.048;2023-04-26T09:52:42;101949.66;;;12.00;55.23
69535;BME280;56754;51.568;5.048;2023-04-26T09:55:07;101947.50;;;12.02;55.58
69535;BME280;56754;51.568;5.048;2023-04-26T09:57:41;101948.03;;;12.04;56.07
69535;BME280;56754;51.568;5.048;2023-04-26T10:00:07;101946.63;;;12.06;55.98
69535;BME280;56754;51.568;5.048;2023-04-26T10:02:33;101943.66;;;12.08;55.46
69535;BME280;56754;51.568;5.048;2023-04-26T10:04:58;101941.75;;;12.09;55.80
69535;BME280;56754;51.568;5.048;2023-04-26T10:07:28;101936.91;;;12.11;55.79
69535;BME280;56754;51.568;5.048;2023-04-26T10:09:56;101939.59;;;12.11;55.88
69535;BME280;56754;51.568;5.048;2023-04-26T10:12:22;101948.16;;;12.13;55.63
69535;BME280;56754;51.568;5.048;2023-04-26T10:14:47;101936.34;;;12.14;55.96
69535;BME280;56754;51.568;5.048;2023-04-26T10:17:13;101935.75;;;12.17;56.05
69535;BME280;56754;51.568;5.048;2023-04-26T10:19:40;101935.16;;;12.20;56.09
69535;BME280;56754;51.568;5.048;2023-04-26T10:22:09;101935.38;;;12.23;55.70
69535;BME280;56754;51.568;5.048;2023-04-26T10:24:36;101932.09;;;12.26;55.18
69535;BME280;56754;51.568;5.048;2023-04-26T10:27:02;101931.81;;;12.28;55.41
69535;BME280;56754;51.568;5.048;2023-04-26T10:32:22;101923.41;;;12.35;55.16
69535;BME280;56754;51.568;5.048;2023-04-26T10:35:09;101924.69;;;12.37;55.01
69535;BME280;56754;51.568;5.048;2023-04-26T10:37:35;101934.84;;;12.40;54.77
69535;BME280;56754;51.568;5.048;2023-04-26T10:40:23;101932.66;;;12.42;54.73
69535;BME280;56754;51.568;5.048;2023-04-26T10:42:49;101934.75;;;12.45;54.48
69535;BME280;56754;51.568;5.048;2023-04-26T10:45:41;101931.47;;;12.48;54.53
69535;BME280;56754;51.568;5.048;2023-04-26T10:48:21;101928.22;;;12.51;54.29
69535;BME280;56754;51.568;5.048;2023-04-26T10:53:24;101909.03;;;12.58;54.22
69535;BME280;56754;51.568;5.048;2023-04-26T10:55:49;101919.47;;;12.60;54.06
69535;BME280;56754;51.568;5.048;2023-04-26T10:58:31;101912.72;;;12.62;53.91
69535;BME280;56754;51.568;5.048;2023-04-26T11:01:09;101904.88;;;12.66;53.84
69535;BME280;56754;51.568;5.048;2023-04-26T11:03:34;101912.63;;;12.67;53.76
69535;BME280;56754;51.568;5.048;2023-04-26T11:05:59;101911.25;;;12.70;53.62
69535;BME280;56754;51.568;5.048;2023-04-26T11:08:26;101908.25;;;12.71;53.44
69535;BME280;56754;51.568;5.048;2023-04-26T11:10:57;101906.88;;;12.74;53.42
69535;BME280;56754;51.568;5.048;2023-04-26T11:13:23;101899.31;;;12.76;53.27
69535;BME280;56754;51.568;5.048;2023-04-26T11:15:52;101893.97;;;12.76;53.14
69535;BME280;56754;51.568;5.048;2023-04-26T11:18:19;101890.19;;;12.77;53.12
69535;BME280;56754;51.568;5.048;2023-04-26T11:20:44;101888.78;;;12.80;52.89
69535;BME280;56754;51.568;5.048;2023-04-26T11:23:10;101886.09;;;12.80;52.77
69535;BME280;56754;51.568;5.048;2023-04-26T11:25:38;101886.63;;;12.82;52.71
69535;BME280;56754;51.568;5.048;2023-04-26T11:28:04;101880.47;;;12.81;52.63
69535;BME280;56754;51.568;5.048;2023-04-26T11:30:30;101884.72;;;12.82;52.57
69535;BME280;56754;51.568;5.048;2023-04-26T11:33:00;101884.44;;;12.84;52.34
69535;BME280;56754;51.568;5.048;2023-04-26T11:35:26;101886.31;;;12.83;52.46
69535;BME280;56754;51.568;5.048;2023-04-26T11:37:52;101880.47;;;12.81;52.19
69535;BME280;56754;51.568;5.048;2023-04-26T11:40:18;101890.09;;;12.82;52.12
69535;BME280;56754;51.568;5.048;2023-04-26T11:42:43;101886.31;;;12.83;52.37
69535;BME280;56754;51.568;5.048;2023-04-26T11:45:10;101897.03;;;12.83;51.90
69535;BME280;56754;51.568;5.048;2023-04-26T11:47:35;101906.97;;;12.83;52.14
69535;BME280;56754;51.568;5.048;2023-04-26T11:50:01;101895.44;;;12.82;52.15
69535;BME280;56754;51.568;5.048;2023-04-26T11:52:27;101897.03;;;12.83;52.00
69535;BME280;56754;51.568;5.048;2023-04-26T11:55:01;101894.06;;;12.85;52.27
69535;BME280;56754;51.568;5.048;2023-04-26T11:57:29;101894.84;;;12.85;52.16
69535;BME280;56754;51.568;5.048;2023-04-26T12:00:12;101902.13;;;12.85;52.03
69535;BME280;56754;51.568;5.048;2023-04-26T12:02:38;101900.22;;;12.85;51.63
69535;BME280;56754;51.568;5.048;2023-04-26T12:05:03;101894.84;;;12.85;51.72
69535;BME280;56754;51.568;5.048;2023-04-26T12:07:35;101889.50;;;12.85;52.01
69535;BME280;56754;51.568;5.048;2023-04-26T12:10:16;101891.88;;;12.87;52.02
69535;BME280;56754;51.568;5.048;2023-04-26T12:12:48;101887.31;;;12.87;51.92
69535;BME280;56754;51.568;5.048;2023-04-26T12:15:14;101883.53;;;12.88;52.03
69535;BME280;56754;51.568;5.048;2023-04-26T12:17:40;101885.94;;;12.90;51.89
69535;BME280;56754;51.568;5.048;2023-04-26T12:20:15;101892.09;;;12.90;52.08
69535;BME280;56754;51.568;5.048;2023-04-26T12:22:40;101903.59;;;12.91;51.99
69535;BME280;56754;51.568;5.048;2023-04-26T12:25:06;101909.75;;;12.91;51.66
69535;BME280;56754;51.568;5.048;2023-04-26T12:27:32;101892.88;;;12.91;52.10
69535;BME280;56754;51.568;5.048;2023-04-26T12:29:57;101888.28;;;12.91;52.08
69535;BME280;56754;51.568;5.048;2023-04-26T12:32:23;101885.31;;;12.93;51.83
69535;BME280;56754;51.568;5.048;2023-04-26T12:34:48;101886.13;;;12.93;51.71
69535;BME280;56754;51.568;5.048;2023-04-26T12:37:13;101886.91;;;12.94;51.67
69535;BME280;56754;51.568;5.048;2023-04-26T12:39:39;101887.69;;;12.94;51.80
69535;BME280;56754;51.568;5.048;2023-04-26T12:42:04;101893.06;;;12.94;51.61
69535;BME280;56754;51.568;5.048;2023-04-26T12:44:29;101894.69;;;12.95;51.54
69535;BME280;56754;51.568;5.048;2023-04-26T12:46:54;101890.88;;;12.96;51.82
69535;BME280;56754;51.568;5.048;2023-04-26T12:49:20;101892.47;;;12.97;51.75
69535;BME280;56754;51.568;5.048;2023-04-26T12:51:45;101894.06;;;12.98;51.96
69535;BME280;56754;51.568;5.048;2023-04-26T12:54:10;101895.66;;;13.00;51.97
69535;BME280;56754;51.568;5.048;2023-04-26T12:56:36;101896.94;;;13.02;51.89
69535;BME280;56754;51.568;5.048;2023-04-26T12:59:01;101897.41;;;13.04;52.02